Airfield :
LOGIN :

Register | Disclaimer

   EN    FR    IT 

 










Legend :    VFR   Marginal VFR   IFR   Intensive IFR   Very Intensive IFR
Visi :
Ceiling :
>= 8 km
>= 3000ft
5 to 8 km
1000 to 3000 ft
1500m to 5 km
500 to 1000 ft
800 to 1500m
200 to 500 ft
< 800m
< 200 ft
Symbols :   Thunderstorms  Fog  Heavy snow  Heavy precipitations  Wind > 20 kt
SIGMETs :     Misc.  Thunderstorms  Icing  Turbulence  Mountain Waves  Volcanic Ashes






- Airport Elevation : 84 ft


LFBC - Cazaux

CURRENT METAR :
  • 280900Z AUTO 27008KT 220V310 9999 SCT030/// BKN039/// BKN054/// //////CB 12/09 Q1018 TEMPO 30025G40KT 2000 TSRA

EXPIRED METARs :
  • 280830Z AUTO 28011KT 250V310 9999 FEW028/// SCT035/// BKN110/// ///CB 13/09 Q1018 TEMPO 30025G40KT 2000 TSRA SCT025
  • 280800Z AUTO 28007KT 9999 SCT028/// BKN035/// ///CB 12/09 Q1018 BECMG 29015G25KT SCT025
  • 280730Z AUTO 28005KT 9999 ///CB 11/08 Q1018 BECMG 29015G25KT SCT025
  • 280700Z AUTO 30006KT 9999 FEW035/// SCT100/// ///TCU 11/08 Q1018
  • 280630Z AUTO VRB02KT 9999 FEW028/// BKN034/// BKN052/// ///TCU 11/09 Q1018

TAF TAF LFBC
Valid from the 28 at 09:00 until the 29 at 09:00 UTC


280800Z 2809/2909 30015KT 9999 SCT025TCU
BECMG 2809/2811 29015G25KT
TEMPO 2809/2906 4000 SHRA BKN020TCU
PROB40
TEMPO 2810/2818 30025G40KT 2000 TSRA BKN015CB



MET'MAP, your aeronautical weather chart ! - Copyright ORBIFLY December 2007 - Disclaimer

ORBIFLY MET'MAP TEAM :

Programming & Development : Alexandra Zaïnal
Original concept : Baudouin d'Aumeries
Technical & hardware support : Manuel Goepfert
Assistance : Marc-Olivier Méhu




SOURCES & CREDITS :

   NOAA